createdAt,value
2022-11-16T00:00:44.388Z,99383.19
2022-11-16T00:02:51.824Z,99382.31
2022-11-16T00:04:55.305Z,99380.56
2022-11-16T00:07:02.662Z,99384.06
2022-11-16T00:09:26.788Z,99377.94
2022-11-16T00:11:30.214Z,99377.06
2022-11-16T00:13:33.865Z,99374.47
2022-11-16T00:15:37.559Z,99368.38
2022-11-16T00:17:40.828Z,99369.25
2022-11-16T00:19:44.202Z,99364.00
2022-11-16T00:21:47.654Z,99363.16
2022-11-16T00:23:52.467Z,99368.38
2022-11-16T00:25:55.777Z,99367.44
2022-11-16T00:27:59.073Z,99369.19
2022-11-16T00:30:02.387Z,99364.88
2022-11-16T00:32:05.987Z,99361.41
2022-11-16T00:34:09.360Z,99357.06
2022-11-16T00:36:13.889Z,99363.16
2022-11-16T00:38:17.226Z,99354.44
2022-11-16T00:40:22.331Z,99329.16
2022-11-16T00:42:25.998Z,99351.81
2022-11-16T00:44:29.400Z,99357.06
2022-11-16T00:46:32.966Z,99349.22
2022-11-16T00:48:36.602Z,99349.19
2022-11-16T00:50:40.578Z,99326.50
2022-11-16T00:52:44.486Z,99348.31
2022-11-16T00:54:48.454Z,99325.66
2022-11-16T00:56:53.142Z,99343.97
2022-11-16T00:58:56.451Z,99344.00
2022-11-16T01:01:05.709Z,99348.38
2022-11-16T01:03:10.200Z,99338.78
2022-11-16T01:05:13.940Z,99340.50
2022-11-16T01:07:17.392Z,99334.38
2022-11-16T01:09:20.927Z,99338.75
2022-11-16T01:11:42.045Z,99339.63
2022-11-16T01:13:46.867Z,99344.81
2022-11-16T01:15:50.615Z,99342.19
2022-11-16T01:17:55.266Z,99340.47
2022-11-16T01:19:58.567Z,99348.28
2022-11-16T01:22:02.467Z,99322.16
2022-11-16T01:24:06.567Z,99343.09
2022-11-16T01:26:10.078Z,99335.22
2022-11-16T01:28:14.744Z,99333.50
2022-11-16T01:30:27.294Z,99337.84
2022-11-16T01:32:40.368Z,99335.25
2022-11-16T01:34:44.230Z,99339.63
2022-11-16T01:36:59.606Z,99330.03
2022-11-16T01:39:06.791Z,99336.09
2022-11-16T01:41:22.260Z,99334.38
2022-11-16T01:43:30.233Z,99337.84
2022-11-16T01:45:42.410Z,99340.47
2022-11-16T01:47:48.094Z,99337.88
2022-11-16T01:49:59.118Z,99338.72
2022-11-16T01:52:09.447Z,99348.31
2022-11-16T01:54:15.042Z,99346.56
2022-11-16T01:56:32.118Z,99348.28
2022-11-16T01:58:46.614Z,99354.38
2022-11-16T02:00:55.983Z,99363.97
2022-11-16T02:03:19.021Z,99348.28
2022-11-16T02:05:34.522Z,99354.38
2022-11-16T02:08:20.713Z,99357.00
2022-11-16T02:10:36.825Z,99366.66
2022-11-16T02:13:15.006Z,99359.66
2022-11-16T02:15:28.378Z,99351.88
2022-11-16T02:17:56.140Z,99337.94
2022-11-16T02:20:38.180Z,99349.22
2022-11-16T02:23:00.547Z,99335.31
2022-11-16T02:25:09.161Z,99326.59
2022-11-16T02:27:34.775Z,99315.31
2022-11-16T02:29:43.845Z,99320.50
2022-11-16T02:31:54.557Z,99327.47
2022-11-16T02:34:00.350Z,99310.06
2022-11-16T02:36:07.655Z,99312.66
2022-11-16T02:38:14.321Z,99317.03
2022-11-16T02:40:21.841Z,99314.41
2022-11-16T02:42:32.101Z,99298.75
2022-11-16T02:44:37.881Z,99295.25
2022-11-16T02:46:47.207Z,99290.91
2022-11-16T02:48:55.253Z,99286.56
2022-11-16T02:50:58.898Z,99286.56
2022-11-16T02:53:02.245Z,99286.56
2022-11-16T02:55:08.794Z,99227.34
2022-11-16T02:57:31.502Z,99273.50
2022-11-16T02:59:40.403Z,99272.63
2022-11-16T03:01:50.514Z,99262.19
2022-11-16T03:03:58.164Z,99261.31
2022-11-16T03:06:06.140Z,99265.66
2022-11-16T03:08:18.753Z,99269.13
2022-11-16T03:10:37.735Z,99260.44
2022-11-16T03:12:43.322Z,99262.19
2022-11-16T03:14:51.618Z,99260.44
2022-11-16T03:16:58.204Z,99266.56
2022-11-16T03:19:06.630Z,99265.69
2022-11-16T03:21:17.050Z,99277.00
2022-11-16T03:23:21.028Z,99278.72
2022-11-16T03:25:27.192Z,99296.13
2022-11-16T03:27:38.509Z,99296.13
2022-11-16T03:29:50.928Z,99292.59
2022-11-16T03:32:02.168Z,99294.34
2022-11-16T03:34:10.845Z,99299.56
2022-11-16T03:36:19.296Z,99302.16
2022-11-16T03:38:26.260Z,99295.28
2022-11-16T03:40:32.787Z,99298.75
2022-11-16T03:42:37.849Z,99295.25
2022-11-16T03:44:43.295Z,99303.97
2022-11-16T03:46:47.914Z,99285.66
2022-11-16T03:48:59.806Z,99310.06
2022-11-16T03:51:10.205Z,99297.88
2022-11-16T03:53:15.317Z,99283.91
2022-11-16T03:55:18.899Z,99307.44
2022-11-16T03:57:22.512Z,99301.34
2022-11-16T03:59:31.027Z,99312.69
2022-11-16T04:01:34.508Z,99314.41
2022-11-16T04:03:37.831Z,99312.66
2022-11-16T04:06:00.326Z,99312.66
2022-11-16T04:08:23.672Z,99315.25
2022-11-16T04:10:45.122Z,99312.66
2022-11-16T04:13:06.207Z,99318.72
2022-11-16T04:15:31.745Z,99325.72
2022-11-16T04:17:59.357Z,99325.72
2022-11-16T04:20:20.953Z,99325.69
2022-11-16T04:22:46.934Z,99340.53
2022-11-16T04:24:55.570Z,99359.66
2022-11-16T04:27:21.782Z,99366.56
2022-11-16T04:29:25.945Z,99369.16
2022-11-16T04:31:46.850Z,99339.59
2022-11-16T04:34:08.952Z,99337.03
2022-11-16T04:36:30.110Z,99340.53
2022-11-16T04:38:36.489Z,99353.59
2022-11-16T04:40:40.527Z,99339.66
2022-11-16T04:42:51.515Z,99344.84
2022-11-16T04:45:12.478Z,99360.47
2022-11-16T04:47:26.524Z,99367.44
2022-11-16T04:49:30.173Z,99359.59
2022-11-16T04:51:35.054Z,99370.91
2022-11-16T04:53:40.360Z,99361.34
2022-11-16T04:55:53.521Z,99358.78
2022-11-16T04:57:58.852Z,99361.41
2022-11-16T05:00:02.836Z,99363.97
2022-11-16T05:02:08.399Z,99360.47
2022-11-16T05:04:17.568Z,99362.28
2022-11-16T05:06:21.648Z,99349.16
2022-11-16T05:08:25.679Z,99360.47
2022-11-16T05:10:32.090Z,99367.44
2022-11-16T05:12:36.139Z,99361.34
2022-11-16T05:14:42.008Z,99366.56
2022-11-16T05:16:45.605Z,99364.81
2022-11-16T05:19:09.406Z,99369.19
2022-11-16T05:21:12.341Z,99364.84
2022-11-16T05:23:35.475Z,99374.41
2022-11-16T05:25:46.362Z,99377.00
2022-11-16T05:27:49.756Z,99361.34
2022-11-16T05:29:54.307Z,99368.31
2022-11-16T05:32:00.549Z,99361.34
2022-11-16T05:34:04.113Z,99381.34
2022-11-16T05:36:08.710Z,99370.03
2022-11-16T05:38:13.480Z,99381.34
2022-11-16T05:40:21.046Z,99373.50
2022-11-16T05:42:34.377Z,99368.28
2022-11-16T05:44:38.896Z,99371.78
2022-11-16T05:46:44.580Z,99388.31
2022-11-16T05:48:48.641Z,99383.09
2022-11-16T05:50:52.088Z,99395.28
2022-11-16T05:53:01.072Z,99390.06
2022-11-16T05:55:05.132Z,99384.84
2022-11-16T05:57:12.665Z,99390.94
2022-11-16T05:59:19.165Z,99385.72
2022-11-16T06:01:25.084Z,99384.00
2022-11-16T06:03:29.523Z,99372.66
2022-11-16T06:05:40.190Z,99370.88
2022-11-16T06:07:45.230Z,99390.03
2022-11-16T06:09:48.908Z,99393.53
2022-11-16T06:11:56.716Z,99399.66
2022-11-16T06:14:00.466Z,99397.03
2022-11-16T06:16:06.395Z,99393.53
2022-11-16T06:18:11.501Z,99405.72
2022-11-16T06:20:15.291Z,99406.59
2022-11-16T06:22:20.265Z,99408.31
2022-11-16T06:24:23.689Z,99417.00
2022-11-16T06:26:27.643Z,99413.50
2022-11-16T06:28:31.741Z,99415.22
2022-11-16T06:30:35.414Z,99420.41
2022-11-16T06:32:41.343Z,99421.28
2022-11-16T06:34:46.042Z,99422.16
2022-11-16T06:36:49.479Z,99434.31
2022-11-16T06:38:52.871Z,99431.63
2022-11-16T06:40:59.607Z,99429.78
2022-11-16T06:43:05.420Z,99438.53
2022-11-16T06:45:09.763Z,99442.91
2022-11-16T06:47:17.690Z,99443.78
2022-11-16T06:49:23.287Z,99443.78
2022-11-16T06:51:28.854Z,99446.56
2022-11-16T06:53:32.396Z,99447.41
2022-11-16T06:55:38.734Z,99446.47
2022-11-16T06:57:42.319Z,99439.47
2022-11-16T06:59:45.706Z,99450.75
2022-11-16T07:01:49.673Z,99446.38
2022-11-16T07:03:53.003Z,99453.31
2022-11-16T07:05:57.721Z,99450.69
2022-11-16T07:08:01.033Z,99455.09
2022-11-16T07:10:06.412Z,99465.53
2022-11-16T07:12:09.831Z,99464.63
2022-11-16T07:14:15.583Z,99468.06
2022-11-16T07:16:19.997Z,99468.91
2022-11-16T07:18:29.891Z,99462.81
2022-11-16T07:20:33.554Z,99467.06
2022-11-16T07:22:38.701Z,99473.16
2022-11-16T07:24:42.676Z,99479.28
2022-11-16T07:26:47.090Z,99473.06
2022-11-16T07:28:54.681Z,99479.22
2022-11-16T07:31:02.954Z,99486.16
2022-11-16T07:33:08.316Z,99487.00
2022-11-16T07:35:32.251Z,99494.00
2022-11-16T07:37:35.604Z,99495.69
2022-11-16T07:39:41.365Z,99492.28
2022-11-16T07:41:47.118Z,99477.44
2022-11-16T07:44:12.019Z,99505.25
2022-11-16T07:48:45.642Z,99505.41
2022-11-16T07:50:54.778Z,99505.47
2022-11-16T07:52:59.473Z,99504.59
2022-11-16T07:55:05.610Z,99507.22
2022-11-16T07:57:10.232Z,99511.56
2022-11-16T07:59:16.416Z,99510.69
2022-11-16T08:01:21.666Z,99507.31
2022-11-16T08:03:25.708Z,99514.25
2022-11-16T08:05:30.993Z,99517.72
2022-11-16T08:07:35.321Z,99488.94
2022-11-16T08:09:39.490Z,99514.22
2022-11-16T08:11:48.166Z,99524.63
2022-11-16T08:13:51.609Z,99530.59
2022-11-16T08:15:56.297Z,99528.84
2022-11-16T08:18:00.142Z,99531.44
2022-11-16T08:20:04.410Z,99527.94
2022-11-16T08:22:07.791Z,99534.84
2022-11-16T08:24:11.331Z,99537.47
2022-11-16T08:26:21.972Z,99541.81
2022-11-16T08:28:34.998Z,99495.56
2022-11-16T08:30:39.781Z,99546.09
2022-11-16T08:32:45.473Z,99547.81
2022-11-16T08:34:50.605Z,99555.69
2022-11-16T08:36:54.513Z,99554.72
2022-11-16T08:39:03.677Z,99547.72
2022-11-16T08:41:09.022Z,99563.44
2022-11-16T08:43:13.182Z,99560.88
2022-11-16T08:45:17.953Z,99565.28
2022-11-16T08:47:22.185Z,99574.91
2022-11-16T08:49:38.185Z,99572.34
2022-11-16T08:51:41.469Z,99577.59
2022-11-16T08:53:45.397Z,99580.19
2022-11-16T08:55:48.963Z,99558.41
2022-11-16T08:57:52.607Z,99584.59
2022-11-16T08:59:56.043Z,99598.47
2022-11-16T09:02:00.941Z,99589.72
2022-11-16T09:04:04.451Z,99592.38
2022-11-16T09:06:09.625Z,99579.38
2022-11-16T09:08:12.924Z,99589.88
2022-11-16T09:10:18.969Z,99590.75
2022-11-16T09:12:22.410Z,99590.69
2022-11-16T09:14:27.608Z,99582.03
2022-11-16T09:16:30.947Z,99586.38
2022-11-16T09:18:36.958Z,99587.25
2022-11-16T09:20:44.744Z,99591.72
2022-11-16T09:22:48.079Z,99587.44
2022-11-16T09:24:51.632Z,99588.31
2022-11-16T09:26:56.707Z,99602.34
2022-11-16T09:29:03.174Z,99593.66
2022-11-16T09:31:07.120Z,99591.06
2022-11-16T09:33:10.916Z,99598.03
2022-11-16T09:35:17.303Z,99598.03
2022-11-16T09:37:20.705Z,99601.50
2022-11-16T09:39:30.963Z,99597.22
2022-11-16T09:41:48.328Z,99601.63
2022-11-16T09:44:01.389Z,99610.31
2022-11-16T09:46:16.122Z,99614.66
2022-11-16T09:48:20.842Z,99599.84
2022-11-16T09:50:37.224Z,99607.84
2022-11-16T09:52:44.618Z,99605.44
2022-11-16T09:54:49.695Z,99608.97
2022-11-16T09:56:58.185Z,99614.22
2022-11-16T09:59:06.681Z,99595.91
2022-11-16T10:01:22.095Z,99600.31
2022-11-16T10:03:27.296Z,99595.06
2022-11-16T10:05:38.038Z,99599.44
2022-11-16T10:07:45.973Z,99604.69
2022-11-16T10:09:49.507Z,99603.78
2022-11-16T10:12:19.881Z,99607.25
2022-11-16T10:15:01.645Z,99577.53
2022-11-16T10:17:11.570Z,99588.84
2022-11-16T10:19:23.894Z,99590.59
2022-11-16T10:21:42.670Z,99581.81
2022-11-16T10:24:06.338Z,99585.34
2022-11-16T10:26:21.997Z,99573.03
2022-11-16T10:28:40.718Z,99587.88
2022-11-16T10:30:52.292Z,99579.97
2022-11-16T10:33:02.787Z,99575.56
2022-11-16T10:35:16.654Z,99572.03
2022-11-16T10:37:22.286Z,99575.56
2022-11-16T10:39:27.432Z,99564.25
2022-11-16T10:41:35.643Z,99568.72
2022-11-16T10:43:39.270Z,99561.59
2022-11-16T10:45:48.169Z,99559.75
2022-11-16T10:47:58.047Z,99564.13
2022-11-16T10:50:03.382Z,99556.91
2022-11-16T10:52:07.674Z,99542.16
2022-11-16T10:54:16.857Z,99556.97
2022-11-16T10:56:23.735Z,99550.06
2022-11-16T10:58:27.178Z,99559.72
2022-11-16T11:00:37.128Z,99554.53
2022-11-16T11:02:49.470Z,99555.44
2022-11-16T11:05:02.966Z,99555.47
2022-11-16T11:07:24.788Z,99546.75
2022-11-16T11:09:32.670Z,99542.56
2022-11-16T11:11:57.241Z,99544.13
2022-11-16T11:14:05.958Z,99546.50
2022-11-16T11:16:17.697Z,99532.34
2022-11-16T11:18:27.696Z,99541.84
2022-11-16T11:20:31.026Z,99540.03
2022-11-16T11:22:42.592Z,99533.59
2022-11-16T11:24:49.543Z,99531.13
2022-11-16T11:26:55.446Z,99519.88
2022-11-16T11:29:01.017Z,99520.63
2022-11-16T11:31:07.990Z,99510.25
2022-11-16T11:33:13.598Z,99509.53
2022-11-16T11:35:29.912Z,99495.66
2022-11-16T11:37:35.843Z,99507.78
2022-11-16T11:39:39.271Z,99509.31
2022-11-16T11:41:45.370Z,99503.28
2022-11-16T11:44:03.693Z,99459.59
2022-11-16T11:46:13.080Z,99498.59
2022-11-16T11:48:30.703Z,99495.94
2022-11-16T11:50:47.838Z,99493.19
2022-11-16T11:53:06.499Z,99488.09
2022-11-16T11:55:15.983Z,99488.28
2022-11-16T11:57:24.872Z,99491.59
2022-11-16T11:59:28.614Z,99479.34
2022-11-16T12:01:46.845Z,99423.53
2022-11-16T12:04:28.233Z,99473.75
2022-11-16T12:06:43.707Z,99467.50
2022-11-16T12:09:05.815Z,99470.03
2022-11-16T12:11:15.992Z,99474.75
2022-11-16T12:13:39.925Z,99464.25
2022-11-16T12:16:00.083Z,99469.16
2022-11-16T12:18:20.991Z,99464.81
2022-11-16T12:20:36.657Z,99459.53
2022-11-16T12:23:03.955Z,99454.94
2022-11-16T12:25:21.383Z,99456.88
2022-11-16T12:27:37.114Z,99457.13
2022-11-16T12:29:52.905Z,99459.75
2022-11-16T12:32:13.642Z,99461.41
2022-11-16T12:34:24.715Z,99452.66
2022-11-16T12:36:36.647Z,99455.06
2022-11-16T12:38:51.146Z,99465.75
2022-11-16T12:41:08.557Z,99449.19
2022-11-16T12:43:22.138Z,99455.75
2022-11-16T12:45:53.707Z,99453.13
2022-11-16T12:48:25.031Z,99459.22
2022-11-16T12:50:52.517Z,99447.03
2022-11-16T12:53:14.107Z,99449.34
2022-11-16T12:55:26.696Z,99450.09
2022-11-16T12:57:39.698Z,99445.69
2022-11-16T13:00:04.456Z,99433.00
2022-11-16T13:02:22.195Z,99429.69
2022-11-16T13:04:29.955Z,99428.34
2022-11-16T13:06:38.275Z,99432.44
2022-11-16T13:08:49.184Z,99429.50
2022-11-16T13:11:03.520Z,99430.88
2022-11-16T13:13:35.312Z,99424.78
2022-11-16T13:15:40.680Z,99415.91
2022-11-16T13:17:52.718Z,99404.31
2022-11-16T13:20:16.028Z,99414.22
2022-11-16T13:22:25.404Z,99417.47
2022-11-16T13:24:39.955Z,99420.22
2022-11-16T13:26:50.733Z,99411.44
2022-11-16T13:29:00.785Z,99391.88
2022-11-16T13:31:12.230Z,99399.09
2022-11-16T13:33:29.906Z,99401.13
2022-11-16T13:35:38.376Z,99403.19
2022-11-16T13:37:49.128Z,99392.00
2022-11-16T13:40:27.606Z,99387.63
2022-11-16T13:42:34.135Z,99389.53
2022-11-16T13:44:37.507Z,99387.84
2022-11-16T13:47:01.042Z,99381.75
2022-11-16T13:49:06.152Z,99385.22
2022-11-16T13:51:18.369Z,99382.66
2022-11-16T13:54:38.032Z,99384.34
2022-11-16T13:55:56.748Z,99381.56
2022-11-16T13:58:02.410Z,99374.31
2022-11-16T14:00:11.866Z,99373.75
2022-11-16T14:02:31.515Z,99379.81
2022-11-16T14:04:54.811Z,99372.84
2022-11-16T14:07:00.307Z,99347.81
2022-11-16T14:09:03.824Z,99377.66
2022-11-16T14:11:29.836Z,99372.66
2022-11-16T14:13:40.615Z,99372.00
2022-11-16T14:15:43.971Z,99378.19
2022-11-16T14:17:55.389Z,99378.28
2022-11-16T14:20:00.120Z,99376.59
2022-11-16T14:22:10.586Z,99370.47
2022-11-16T14:24:28.742Z,99373.16
2022-11-16T14:26:45.840Z,99371.41
2022-11-16T14:29:23.273Z,99367.06
2022-11-16T14:31:31.238Z,99367.94
2022-11-16T14:33:37.583Z,99357.38
2022-11-16T14:35:42.637Z,99365.25
2022-11-16T14:37:46.015Z,99371.38
2022-11-16T14:39:51.527Z,99366.00
2022-11-16T14:41:56.115Z,99358.97
2022-11-16T14:44:00.081Z,99362.31
2022-11-16T14:46:06.767Z,99362.44
2022-11-16T14:48:16.654Z,99367.78
2022-11-16T14:50:23.467Z,99362.56
2022-11-16T14:52:37.573Z,99355.72
2022-11-16T14:54:47.574Z,99359.19
2022-11-16T14:56:58.593Z,99350.50
2022-11-16T14:59:03.274Z,99346.19
2022-11-16T15:01:12.816Z,99331.44
2022-11-16T15:03:16.346Z,99341.03
2022-11-16T15:05:21.736Z,99341.06
2022-11-16T15:07:27.265Z,99341.09
2022-11-16T15:09:35.067Z,99336.75
2022-11-16T15:11:58.995Z,99325.44
2022-11-16T15:14:02.520Z,99336.75
2022-11-16T15:16:10.821Z,99342.00
2022-11-16T15:18:18.425Z,99332.47
2022-11-16T15:20:24.052Z,99334.22
2022-11-16T15:22:29.273Z,99321.97
2022-11-16T15:24:35.350Z,99324.59
2022-11-16T15:26:39.640Z,99321.16
2022-11-16T15:28:48.738Z,99321.13
2022-11-16T15:30:55.493Z,99322.03
2022-11-16T15:32:59.029Z,99316.78
2022-11-16T15:35:05.495Z,99263.69
2022-11-16T15:37:12.388Z,99322.91
2022-11-16T15:39:19.729Z,99316.75
2022-11-16T15:41:27.928Z,99300.16
2022-11-16T15:43:35.938Z,99295.84
2022-11-16T15:45:44.929Z,99307.25
2022-11-16T15:47:49.440Z,99305.50
2022-11-16T15:49:53.859Z,99303.78
2022-11-16T15:51:58.802Z,99295.06
2022-11-16T15:54:15.471Z,99282.00
2022-11-16T15:56:21.752Z,99295.09
2022-11-16T15:58:31.623Z,99284.59
2022-11-16T16:00:37.602Z,99280.19
2022-11-16T16:02:45.530Z,99254.13
2022-11-16T16:04:48.816Z,99281.13
2022-11-16T16:06:54.142Z,99278.47
2022-11-16T16:09:05.454Z,99281.13
2022-11-16T16:11:11.867Z,99264.56
2022-11-16T16:13:26.642Z,99271.53
2022-11-16T16:15:33.949Z,99275.94
2022-11-16T16:17:37.405Z,99275.06
2022-11-16T16:19:43.004Z,99265.47
2022-11-16T16:21:47.886Z,99265.47
2022-11-16T16:23:52.664Z,99254.22
2022-11-16T16:25:55.946Z,99264.66
2022-11-16T16:27:59.270Z,99276.88
2022-11-16T16:30:05.779Z,99269.94
2022-11-16T16:32:14.823Z,99277.75
2022-11-16T16:34:18.222Z,99271.72
2022-11-16T16:36:21.476Z,99270.84
2022-11-16T16:38:24.799Z,99257.78
2022-11-16T16:40:28.502Z,99251.69
2022-11-16T16:42:34.654Z,99249.94
2022-11-16T16:44:38.114Z,99258.66
2022-11-16T16:46:41.682Z,99252.56
2022-11-16T16:48:46.477Z,99251.69
2022-11-16T16:50:49.854Z,99251.72
2022-11-16T16:52:53.307Z,99252.59
2022-11-16T16:54:56.702Z,99253.47
2022-11-16T16:57:01.367Z,99254.31
2022-11-16T16:59:04.648Z,99242.16
2022-11-16T17:01:08.054Z,99195.16
2022-11-16T17:03:11.674Z,99255.22
2022-11-16T17:05:16.849Z,99241.31
2022-11-16T17:07:20.375Z,99248.25
2022-11-16T17:09:23.677Z,99240.44
2022-11-16T17:11:27.064Z,99243.91
2022-11-16T17:13:30.505Z,99247.41
2022-11-16T17:15:33.835Z,99246.50
2022-11-16T17:17:37.271Z,99241.28
2022-11-16T17:19:40.549Z,99231.72
2022-11-16T17:21:45.740Z,99236.06
2022-11-16T17:23:49.064Z,99228.22
2022-11-16T17:25:52.366Z,99226.50
2022-11-16T17:27:56.064Z,99229.09
2022-11-16T17:29:59.453Z,99216.91
2022-11-16T17:32:03.237Z,99222.16
2022-11-16T17:34:10.796Z,99220.41
2022-11-16T17:36:17.800Z,99210.81
2022-11-16T17:38:22.434Z,99216.94
2022-11-16T17:40:25.730Z,99218.69
2022-11-16T17:42:29.001Z,99201.25
2022-11-16T17:44:33.151Z,99203.88
2022-11-16T17:46:36.686Z,99223.88
2022-11-16T17:48:42.171Z,99211.69
2022-11-16T17:50:48.273Z,99203.84
2022-11-16T17:52:51.628Z,99197.78
2022-11-16T17:54:56.388Z,99200.34
2022-11-16T17:56:59.738Z,99196.88
2022-11-16T17:59:03.069Z,99196.00
2022-11-16T18:01:07.198Z,99195.13
2022-11-16T18:03:10.648Z,99190.78
2022-11-16T18:05:13.928Z,99182.94
2022-11-16T18:07:17.334Z,99184.72
2022-11-16T18:09:20.689Z,99182.97
2022-11-16T18:11:26.709Z,99179.47
2022-11-16T18:13:30.197Z,99184.72
2022-11-16T18:15:40.878Z,99177.75
2022-11-16T18:17:45.798Z,99179.47
2022-11-16T18:19:49.319Z,99173.41
2022-11-16T18:21:52.718Z,99179.50
2022-11-16T18:23:56.639Z,99182.06
2022-11-16T18:26:00.643Z,99178.63
2022-11-16T18:28:05.753Z,99189.06
2022-11-16T18:30:10.417Z,99182.06
2022-11-16T18:32:13.872Z,99181.19
2022-11-16T18:34:19.366Z,99182.06
2022-11-16T18:36:23.560Z,99169.88
2022-11-16T18:38:27.136Z,99178.56
2022-11-16T18:40:30.814Z,99174.22
2022-11-16T18:42:34.178Z,99172.47
2022-11-16T18:44:39.047Z,99175.09
2022-11-16T18:46:43.436Z,99169.88
2022-11-16T18:48:47.654Z,99176.78
2022-11-16T18:50:51.125Z,99173.34
2022-11-16T18:52:54.563Z,99179.41
2022-11-16T18:54:58.035Z,99176.81
2022-11-16T18:57:01.508Z,99174.22
2022-11-16T18:59:04.980Z,99168.13
2022-11-16T19:01:12.981Z,99174.22
2022-11-16T19:03:16.798Z,99173.38
2022-11-16T19:05:20.343Z,99161.16
2022-11-16T19:07:24.289Z,99175.06
2022-11-16T19:09:27.877Z,99152.47
2022-11-16T19:11:31.364Z,99163.78
2022-11-16T19:13:35.810Z,99150.75
2022-11-16T19:15:42.014Z,99152.47
2022-11-16T19:18:14.263Z,99155.09
2022-11-16T19:20:11.782Z,99154.22
2022-11-16T19:22:15.254Z,99150.78
2022-11-16T19:24:18.699Z,99152.50
2022-11-16T19:26:25.072Z,99151.63
2022-11-16T19:28:28.523Z,99151.59
2022-11-16T19:30:32.316Z,99135.94
2022-11-16T19:32:35.821Z,99132.50
2022-11-16T19:34:41.325Z,99139.44
2022-11-16T19:36:44.777Z,99140.34
2022-11-16T19:38:49.318Z,99138.59
2022-11-16T19:40:52.735Z,99143.81
2022-11-16T19:42:56.192Z,99137.72
2022-11-16T19:44:59.617Z,99131.66
2022-11-16T19:47:03.197Z,99122.06
2022-11-16T19:49:08.635Z,99135.09
2022-11-16T19:51:15.665Z,99132.47
2022-11-16T19:53:19.145Z,99077.69
2022-11-16T19:55:22.569Z,99126.41
2022-11-16T19:57:26.063Z,99118.59
2022-11-16T19:59:29.506Z,99116.88
2022-11-16T20:01:33.341Z,99109.91
2022-11-16T20:03:38.309Z,99101.22
2022-11-16T20:05:42.043Z,99088.19
2022-11-16T20:07:47.079Z,99097.75
2022-11-16T20:09:53.358Z,99097.75
2022-11-16T20:11:57.108Z,99032.53
2022-11-16T20:14:01.155Z,99081.22
2022-11-16T20:16:04.783Z,99082.09
2022-11-16T20:18:08.280Z,99073.41
2022-11-16T20:20:12.067Z,99063.84
2022-11-16T20:22:16.714Z,99060.38
2022-11-16T20:24:22.014Z,99055.16
2022-11-16T20:26:27.462Z,99056.88
2022-11-16T20:28:35.138Z,99047.31
2022-11-16T20:30:38.856Z,99036.91
2022-11-16T20:32:42.449Z,99023.84
2022-11-16T20:34:45.916Z,99028.22
2022-11-16T20:36:50.880Z,99032.56
2022-11-16T20:38:54.791Z,99024.75
2022-11-16T20:40:59.810Z,99018.66
2022-11-16T20:43:03.419Z,99036.88
2022-11-16T20:45:08.319Z,99025.56
2022-11-16T20:47:11.832Z,99026.47
2022-11-16T20:49:15.599Z,99022.97
2022-11-16T20:51:21.238Z,99025.56
2022-11-16T20:53:25.228Z,99025.59
2022-11-16T20:55:28.663Z,99024.75
2022-11-16T20:57:33.778Z,99030.81
2022-11-16T20:59:37.284Z,99026.47
2022-11-16T21:01:41.578Z,99021.25
2022-11-16T21:03:45.175Z,99018.66
2022-11-16T21:05:52.789Z,99014.28
2022-11-16T21:07:56.214Z,99015.16
2022-11-16T21:10:17.296Z,99014.28
2022-11-16T21:12:42.871Z,99010.81
2022-11-16T21:14:47.862Z,99006.47
2022-11-16T21:16:51.339Z,99000.41
2022-11-16T21:18:55.468Z,98992.53
2022-11-16T21:21:00.511Z,98997.75
2022-11-16T21:23:03.967Z,98983.88
2022-11-16T21:25:08.106Z,98985.59
2022-11-16T21:27:11.554Z,98984.75
2022-11-16T21:29:15.113Z,98975.19
2022-11-16T21:31:21.806Z,98966.47
2022-11-16T21:33:27.463Z,98958.66
2022-11-16T21:35:31.368Z,98943.03
2022-11-16T21:37:34.785Z,98957.78
2022-11-16T21:39:38.200Z,98899.63
2022-11-16T21:41:41.746Z,98945.59
2022-11-16T21:43:45.332Z,98936.03
2022-11-16T21:45:49.847Z,98936.03
2022-11-16T21:47:54.733Z,98922.16
2022-11-16T21:52:21.839Z,98921.28
2022-11-16T21:54:45.294Z,98916.94
2022-11-16T21:56:48.812Z,98896.97
2022-11-16T21:58:53.036Z,98913.47
2022-11-16T22:00:57.495Z,98909.09
2022-11-16T22:03:02.439Z,98894.31
2022-11-16T22:05:23.992Z,98878.72
2022-11-16T22:07:32.830Z,98888.25
2022-11-16T22:09:36.388Z,98879.53
2022-11-16T22:11:39.843Z,98887.34
2022-11-16T22:13:43.708Z,98891.72
2022-11-16T22:15:47.285Z,98885.66
2022-11-16T22:17:50.766Z,98882.19
2022-11-16T22:19:55.957Z,98881.28
2022-11-16T22:21:59.985Z,98877.81
2022-11-16T22:24:03.476Z,98860.44
2022-11-16T22:26:09.225Z,98870.84
2022-11-16T22:28:21.245Z,98866.53
2022-11-16T22:30:25.186Z,98862.22
2022-11-16T22:32:28.673Z,98856.97
2022-11-16T22:34:32.129Z,98843.06
2022-11-16T22:36:36.961Z,98835.28
2022-11-16T22:38:40.362Z,98832.63
2022-11-16T22:40:49.974Z,98837.84
2022-11-16T22:42:57.155Z,98835.28
2022-11-16T22:45:00.557Z,98836.13
2022-11-16T22:47:04.355Z,98829.22
2022-11-16T22:49:07.966Z,98825.72
2022-11-16T22:51:19.037Z,98810.97
2022-11-16T22:53:23.852Z,98788.38
2022-11-16T22:55:27.266Z,98794.44
2022-11-16T22:57:30.819Z,98792.72
2022-11-16T22:59:34.271Z,98781.44
2022-11-16T23:01:38.115Z,98784.94
2022-11-16T23:03:41.769Z,98780.56
2022-11-16T23:05:45.267Z,98775.34
2022-11-16T23:07:48.816Z,98771.00
2022-11-16T23:09:53.778Z,98769.31
2022-11-16T23:12:15.012Z,98764.97
2022-11-16T23:14:36.592Z,98752.81
2022-11-16T23:16:40.925Z,98732.84
2022-11-16T23:18:44.287Z,98742.41
2022-11-16T23:21:05.364Z,98738.94
2022-11-16T23:23:34.565Z,98738.94
2022-11-16T23:25:57.125Z,98719.00
2022-11-16T23:28:05.187Z,98718.97
2022-11-16T23:30:12.723Z,98707.69
2022-11-16T23:32:16.772Z,98712.91
2022-11-16T23:34:20.979Z,98712.00
2022-11-16T23:36:24.395Z,98699.88
2022-11-16T23:38:27.819Z,98703.34
2022-11-16T23:40:33.312Z,98685.13
2022-11-16T23:42:55.650Z,98684.22
2022-11-16T23:44:59.185Z,98679.03
2022-11-16T23:47:02.569Z,98674.69
2022-11-16T23:49:06.186Z,98667.69
2022-11-16T23:51:11.555Z,98648.63
2022-11-16T23:53:15.546Z,98643.41
2022-11-16T23:55:19.002Z,98626.03
2022-11-16T23:57:22.519Z,98619.94
2022-11-16T23:59:27.375Z,98610.41
